createdAt,value
2018-09-28T00:00:13.956Z,1008.71
2018-09-28T00:01:13.925Z,1008.73
2018-09-28T00:02:13.901Z,1008.73
2018-09-28T00:03:13.872Z,1008.75
2018-09-28T00:04:13.844Z,1008.81
2018-09-28T00:05:13.818Z,1008.84
2018-09-28T00:06:13.793Z,1008.85
2018-09-28T00:07:13.781Z,1008.86
2018-09-28T00:08:13.739Z,1008.85
2018-09-28T00:09:13.713Z,1008.80
2018-09-28T00:10:13.694Z,1008.85
2018-09-28T00:11:13.663Z,1008.87
2018-09-28T00:12:13.635Z,1008.83
2018-09-28T00:13:13.607Z,1008.84
2018-09-28T00:14:13.585Z,1008.85
2018-09-28T00:15:13.564Z,1008.85
2018-09-28T00:16:13.528Z,1008.82
2018-09-28T00:17:13.508Z,1008.80
2018-09-28T00:18:13.481Z,1008.81
2018-09-28T00:19:13.451Z,1008.81
2018-09-28T00:20:13.425Z,1008.81
2018-09-28T00:21:13.403Z,1008.82
2018-09-28T00:22:13.378Z,1008.81
2018-09-28T00:23:13.342Z,1008.78
2018-09-28T00:24:13.325Z,1008.81
2018-09-28T00:25:13.301Z,1008.78
2018-09-28T00:26:13.270Z,1008.80
2018-09-28T00:27:13.245Z,1008.76
2018-09-28T00:28:13.218Z,1008.81
2018-09-28T00:29:13.194Z,1008.80
2018-09-28T00:30:13.161Z,1008.80
2018-09-28T00:31:13.139Z,1008.80
2018-09-28T00:32:13.109Z,1008.78
2018-09-28T00:33:13.086Z,1008.76
2018-09-28T00:34:13.064Z,1008.76
2018-09-28T00:35:13.031Z,1008.77
2018-09-28T00:36:13.020Z,1008.74
2018-09-28T00:37:12.986Z,1008.68
2018-09-28T00:38:12.948Z,1008.65
2018-09-28T00:39:12.933Z,1008.66
2018-09-28T00:40:12.906Z,1008.65
2018-09-28T00:41:12.877Z,1008.66
2018-09-28T00:42:12.848Z,1008.65
2018-09-28T00:43:12.826Z,1008.69
2018-09-28T00:44:12.801Z,1008.64
2018-09-28T00:45:12.768Z,1008.61
2018-09-28T00:46:12.747Z,1008.60
2018-09-28T00:47:12.723Z,1008.54
2018-09-28T00:48:12.688Z,1008.54
2018-09-28T00:49:12.670Z,1008.51
2018-09-28T00:50:12.634Z,1008.53
2018-09-28T00:51:12.613Z,1008.51
2018-09-28T00:52:12.594Z,1008.53
2018-09-28T00:53:12.558Z,1008.51
2018-09-28T00:54:12.538Z,1008.51
2018-09-28T00:55:12.508Z,1008.50
2018-09-28T00:56:12.485Z,1008.48
2018-09-28T00:57:12.453Z,1008.48
2018-09-28T00:58:12.429Z,1008.47
2018-09-28T00:59:12.409Z,1008.47
2018-09-28T01:00:12.374Z,1008.50
2018-09-28T01:01:12.344Z,1008.53
2018-09-28T01:02:12.327Z,1008.53
2018-09-28T01:03:12.299Z,1008.53
2018-09-28T01:04:12.268Z,1008.51
2018-09-28T01:05:12.241Z,1008.47
2018-09-28T01:06:12.225Z,1008.48
2018-09-28T01:07:12.195Z,1008.49
2018-09-28T01:08:12.163Z,1008.49
2018-09-28T01:09:12.136Z,1008.51
2018-09-28T01:10:12.168Z,1008.52
2018-09-28T01:11:12.092Z,1008.49
2018-09-28T01:12:12.055Z,1008.47
2018-09-28T01:13:12.035Z,1008.50
2018-09-28T01:14:12.009Z,1008.49
2018-09-28T01:15:11.980Z,1008.51
2018-09-28T01:16:11.957Z,1008.53
2018-09-28T01:17:11.931Z,1008.54
2018-09-28T01:18:11.897Z,1008.51
2018-09-28T01:19:11.873Z,1008.52
2018-09-28T01:20:11.849Z,1008.53
2018-09-28T01:21:11.828Z,1008.54
2018-09-28T01:22:11.795Z,1008.52
2018-09-28T01:23:11.767Z,1008.47
2018-09-28T01:24:11.747Z,1008.51
2018-09-28T01:25:11.717Z,1008.53
2018-09-28T01:26:11.688Z,1008.52
2018-09-28T01:27:11.659Z,1008.53
2018-09-28T01:28:11.643Z,1008.51
2018-09-28T01:29:11.618Z,1008.50
2018-09-28T01:30:11.715Z,1008.48
2018-09-28T01:31:11.563Z,1008.53
2018-09-28T01:32:11.529Z,1008.57
2018-09-28T01:33:11.505Z,1008.60
2018-09-28T01:34:11.476Z,1008.61
2018-09-28T01:35:11.447Z,1008.67
2018-09-28T01:36:11.429Z,1008.65
2018-09-28T01:37:11.395Z,1008.64
2018-09-28T01:38:11.374Z,1008.68
2018-09-28T01:39:11.347Z,1008.67
2018-09-28T01:40:11.332Z,1008.66
2018-09-28T01:41:11.300Z,1008.62
2018-09-28T01:42:11.261Z,1008.62
2018-09-28T01:43:11.246Z,1008.63
2018-09-28T01:44:11.218Z,1008.55
2018-09-28T01:45:11.268Z,1008.56
2018-09-28T01:46:11.163Z,1008.56
2018-09-28T01:47:11.134Z,1008.62
2018-09-28T01:48:11.116Z,1008.66
2018-09-28T01:49:11.088Z,1008.65
2018-09-28T01:50:11.057Z,1008.63
2018-09-28T01:51:11.030Z,1008.66
2018-09-28T01:52:11.010Z,1008.65
2018-09-28T01:53:10.975Z,1008.60
2018-09-28T01:54:10.957Z,1008.64
2018-09-28T01:55:10.928Z,1008.68
2018-09-28T01:56:10.897Z,1008.71
2018-09-28T01:57:10.876Z,1008.66
2018-09-28T01:58:10.844Z,1008.71
2018-09-28T01:59:10.827Z,1008.65
2018-09-28T02:00:10.795Z,1008.65
2018-09-28T02:01:10.761Z,1008.61
2018-09-28T02:02:10.737Z,1008.62
2018-09-28T02:03:10.715Z,1008.64
2018-09-28T02:04:10.682Z,1008.64
2018-09-28T02:05:10.666Z,1008.61
2018-09-28T02:06:10.635Z,1008.63
2018-09-28T02:07:10.607Z,1008.61
2018-09-28T02:08:10.580Z,1008.61
2018-09-28T02:09:10.568Z,1008.59
2018-09-28T02:10:10.523Z,1008.58
2018-09-28T02:11:10.504Z,1008.63
2018-09-28T02:12:10.475Z,1008.61
2018-09-28T02:13:10.447Z,1008.60
2018-09-28T02:14:10.425Z,1008.63
2018-09-28T02:15:10.400Z,1008.62
2018-09-28T02:16:10.370Z,1008.61
2018-09-28T02:17:10.346Z,1008.63
2018-09-28T02:18:10.318Z,1008.64
2018-09-28T02:19:10.287Z,1008.60
2018-09-28T02:20:10.263Z,1008.56
2018-09-28T02:21:10.232Z,1008.56
2018-09-28T02:22:10.219Z,1008.59
2018-09-28T02:23:10.189Z,1008.59
2018-09-28T02:24:10.162Z,1008.57
2018-09-28T02:25:10.132Z,1008.58
2018-09-28T02:26:10.113Z,1008.58
2018-09-28T02:27:10.080Z,1008.61
2018-09-28T02:28:10.052Z,1008.59
2018-09-28T02:29:10.031Z,1008.64
2018-09-28T02:30:09.996Z,1008.63
2018-09-28T02:31:09.970Z,1008.59
2018-09-28T02:32:09.959Z,1008.61
2018-09-28T02:33:09.924Z,1008.52
2018-09-28T02:34:09.896Z,1008.56
2018-09-28T02:35:09.864Z,1008.55
2018-09-28T02:36:09.848Z,1008.56
2018-09-28T02:37:09.819Z,1008.54
2018-09-28T02:38:09.788Z,1008.58
2018-09-28T02:39:09.765Z,1008.60
2018-09-28T02:40:09.734Z,1008.54
2018-09-28T02:41:09.706Z,1008.53
2018-09-28T02:42:09.683Z,1008.55
2018-09-28T02:43:09.661Z,1008.55
2018-09-28T02:44:09.624Z,1008.58
2018-09-28T02:45:09.603Z,1008.60
2018-09-28T02:46:09.573Z,1008.56
2018-09-28T02:47:09.546Z,1008.54
2018-09-28T02:48:09.527Z,1008.53
2018-09-28T02:49:09.499Z,1008.47
2018-09-28T02:50:09.476Z,1008.44
2018-09-28T02:51:09.442Z,1008.48
2018-09-28T02:52:09.418Z,1008.49
2018-09-28T02:53:09.413Z,1008.45
2018-09-28T02:54:09.371Z,1008.44
2018-09-28T02:55:09.340Z,1008.41
2018-09-28T02:56:09.314Z,1008.38
2018-09-28T02:57:09.287Z,1008.35
2018-09-28T02:58:09.256Z,1008.36
2018-09-28T02:59:09.231Z,1008.39
2018-09-28T03:00:09.208Z,1008.43
2018-09-28T03:01:09.175Z,1008.44
2018-09-28T03:02:09.152Z,1008.35
2018-09-28T03:03:09.134Z,1008.36
2018-09-28T03:04:09.101Z,1008.35
2018-09-28T03:05:09.067Z,1008.31
2018-09-28T03:06:09.101Z,1008.34
2018-09-28T03:07:09.021Z,1008.36
2018-09-28T03:08:08.991Z,1008.34
2018-09-28T03:09:08.970Z,1008.35
2018-09-28T03:10:08.940Z,1008.30
2018-09-28T03:11:08.915Z,1008.36
2018-09-28T03:12:08.880Z,1008.38
2018-09-28T03:13:08.864Z,1008.39
2018-09-28T03:14:08.830Z,1008.35
2018-09-28T03:15:08.813Z,1008.37
2018-09-28T03:16:08.773Z,1008.36
2018-09-28T03:17:08.753Z,1008.40
2018-09-28T03:18:08.729Z,1008.41
2018-09-28T03:19:08.696Z,1008.42
2018-09-28T03:20:08.679Z,1008.45
2018-09-28T03:21:08.662Z,1008.42
2018-09-28T03:22:08.626Z,1008.42
2018-09-28T03:23:08.593Z,1008.46
2018-09-28T03:24:08.573Z,1008.51
2018-09-28T03:25:08.537Z,1008.49
2018-09-28T03:26:08.520Z,1008.49
2018-09-28T03:27:08.491Z,1008.45
2018-09-28T03:28:08.468Z,1008.53
2018-09-28T03:29:08.435Z,1008.53
2018-09-28T03:30:08.408Z,1008.52
2018-09-28T03:31:08.381Z,1008.52
2018-09-28T03:32:08.360Z,1008.49
2018-09-28T03:33:08.329Z,1008.49
2018-09-28T03:34:08.308Z,1008.54
2018-09-28T03:35:08.280Z,1008.54
2018-09-28T03:36:08.243Z,1008.55
2018-09-28T03:37:08.234Z,1008.50
2018-09-28T03:38:08.196Z,1008.52
2018-09-28T03:39:08.173Z,1008.57
2018-09-28T03:40:08.143Z,1008.58
2018-09-28T03:41:08.116Z,1008.58
2018-09-28T03:42:08.096Z,1008.62
2018-09-28T03:43:08.066Z,1008.56
2018-09-28T03:44:08.043Z,1008.60
2018-09-28T03:45:08.007Z,1008.60
2018-09-28T03:46:07.988Z,1008.62
2018-09-28T03:47:07.952Z,1008.61
2018-09-28T03:48:07.935Z,1008.58
2018-09-28T03:49:07.908Z,1008.60
2018-09-28T03:50:07.877Z,1008.61
2018-09-28T03:51:07.856Z,1008.65
2018-09-28T03:52:07.819Z,1008.61
2018-09-28T03:53:07.799Z,1008.67
2018-09-28T03:54:07.782Z,1008.67
2018-09-28T03:55:07.749Z,1008.72
2018-09-28T03:56:07.716Z,1008.73
2018-09-28T03:57:07.713Z,1008.74
2018-09-28T03:58:07.663Z,1008.76
2018-09-28T03:59:07.637Z,1008.74
2018-09-28T04:00:07.612Z,1008.77
2018-09-28T04:01:07.590Z,1008.75
2018-09-28T04:02:07.555Z,1008.77
2018-09-28T04:03:07.535Z,1008.78
2018-09-28T04:04:07.512Z,1008.77
2018-09-28T04:05:07.484Z,1008.77
2018-09-28T04:06:07.456Z,1008.82
2018-09-28T04:07:07.430Z,1008.75
2018-09-28T04:08:07.402Z,1008.71
2018-09-28T04:09:07.376Z,1008.71
2018-09-28T04:10:07.345Z,1008.68
2018-09-28T04:11:07.321Z,1008.67
2018-09-28T04:12:07.296Z,1008.65
2018-09-28T04:13:07.270Z,1008.64
2018-09-28T04:14:07.240Z,1008.63
2018-09-28T04:15:07.263Z,1008.66
2018-09-28T04:16:07.193Z,1008.64
2018-09-28T04:17:07.163Z,1008.64
2018-09-28T04:18:07.131Z,1008.61
2018-09-28T04:19:07.107Z,1008.65
2018-09-28T04:20:07.086Z,1008.63
2018-09-28T04:21:07.055Z,1008.63
2018-09-28T04:22:07.108Z,1008.63
2018-09-28T04:23:07.011Z,1008.65
2018-09-28T04:24:06.974Z,1008.63
2018-09-28T04:25:06.954Z,1008.62
2018-09-28T04:26:06.929Z,1008.64
2018-09-28T04:27:06.897Z,1008.65
2018-09-28T04:28:06.884Z,1008.61
2018-09-28T04:29:06.841Z,1008.64
2018-09-28T04:30:06.825Z,1008.66
2018-09-28T04:31:06.790Z,1008.66
2018-09-28T04:32:06.815Z,1008.63
2018-09-28T04:33:06.740Z,1008.66
2018-09-28T04:34:06.710Z,1008.63
2018-09-28T04:35:06.690Z,1008.66
2018-09-28T04:36:06.667Z,1008.65
2018-09-28T04:37:06.628Z,1008.66
2018-09-28T04:38:06.614Z,1008.68
2018-09-28T04:39:06.574Z,1008.69
2018-09-28T04:40:06.561Z,1008.69
2018-09-28T04:41:06.530Z,1008.74
2018-09-28T04:42:06.497Z,1008.76
2018-09-28T04:43:06.472Z,1008.84
2018-09-28T04:44:06.448Z,1008.84
2018-09-28T04:45:06.447Z,1008.86
2018-09-28T04:46:06.399Z,1008.88
2018-09-28T04:47:06.368Z,1008.88
2018-09-28T04:48:06.340Z,1008.91
2018-09-28T04:49:06.332Z,1008.93
2018-09-28T04:50:06.286Z,1008.94
2018-09-28T04:51:06.259Z,1008.96
2018-09-28T04:52:06.243Z,1008.93
2018-09-28T04:53:06.211Z,1008.95
2018-09-28T04:54:06.187Z,1008.97
2018-09-28T04:55:06.160Z,1008.98
2018-09-28T04:56:06.127Z,1009.03
2018-09-28T04:57:06.101Z,1008.96
2018-09-28T04:58:06.079Z,1008.97
2018-09-28T04:59:06.052Z,1009.00
2018-09-28T05:00:06.021Z,1008.98
2018-09-28T05:01:06.007Z,1008.99
2018-09-28T05:02:05.967Z,1009.03
2018-09-28T05:03:05.943Z,1009.02
2018-09-28T05:04:05.918Z,1009.01
2018-09-28T05:05:05.891Z,1009.01
2018-09-28T05:06:05.874Z,1009.05
2018-09-28T05:07:05.847Z,1009.10
2018-09-28T05:08:05.810Z,1009.08
2018-09-28T05:09:05.788Z,1009.11
2018-09-28T05:10:05.759Z,1009.16
2018-09-28T05:11:05.729Z,1009.19
2018-09-28T05:12:05.711Z,1009.18
2018-09-28T05:13:05.750Z,1009.22
2018-09-28T05:14:05.650Z,1009.19
2018-09-28T05:15:05.629Z,1009.15
2018-09-28T05:16:05.604Z,1009.19
2018-09-28T05:17:05.578Z,1009.22
2018-09-28T05:18:05.544Z,1009.19
2018-09-28T05:19:05.526Z,1009.23
2018-09-28T05:20:05.507Z,1009.28
2018-09-28T05:21:05.467Z,1009.25
2018-09-28T05:22:05.446Z,1009.22
2018-09-28T05:23:05.420Z,1009.21
2018-09-28T05:24:05.391Z,1009.21
2018-09-28T05:25:05.362Z,1009.23
2018-09-28T05:26:05.340Z,1009.29
2018-09-28T05:27:05.308Z,1009.34
2018-09-28T05:28:05.397Z,1009.40
2018-09-28T05:29:05.260Z,1009.36
2018-09-28T05:30:05.238Z,1009.45
2018-09-28T05:31:05.241Z,1009.43
2018-09-28T05:32:05.250Z,1009.46
2018-09-28T05:33:05.281Z,1009.47
2018-09-28T05:34:05.129Z,1009.54
2018-09-28T05:35:05.103Z,1009.53
2018-09-28T05:36:05.071Z,1009.52
2018-09-28T05:37:05.057Z,1009.56
2018-09-28T05:38:05.017Z,1009.55
2018-09-28T05:39:04.995Z,1009.55
2018-09-28T05:40:04.972Z,1009.54
2018-09-28T05:41:04.948Z,1009.52
2018-09-28T05:42:04.913Z,1009.53
2018-09-28T05:43:04.892Z,1009.51
2018-09-28T05:44:04.864Z,1009.53
2018-09-28T05:45:04.845Z,1009.52
2018-09-28T05:46:04.807Z,1009.53
2018-09-28T05:47:04.790Z,1009.55
2018-09-28T05:48:04.758Z,1009.56
2018-09-28T05:49:04.738Z,1009.63
2018-09-28T05:50:04.712Z,1009.67
2018-09-28T05:51:04.692Z,1009.72
2018-09-28T05:52:04.648Z,1009.74
2018-09-28T05:53:04.630Z,1009.76
2018-09-28T05:54:04.610Z,1009.73
2018-09-28T05:55:04.579Z,1009.77
2018-09-28T05:56:04.544Z,1009.76
2018-09-28T05:57:04.520Z,1009.74
2018-09-28T05:58:04.497Z,1009.78
2018-09-28T05:59:04.466Z,1009.77
2018-09-28T06:00:04.483Z,1009.81
2018-09-28T06:01:04.416Z,1009.82
2018-09-28T06:02:04.391Z,1009.79
2018-09-28T06:03:04.359Z,1009.78
2018-09-28T06:04:04.338Z,1009.78
2018-09-28T06:05:04.307Z,1009.78
2018-09-28T06:06:04.288Z,1009.78
2018-09-28T06:07:04.259Z,1009.79
2018-09-28T06:08:04.230Z,1009.81
2018-09-28T06:09:04.216Z,1009.81
2018-09-28T06:10:04.171Z,1009.89
2018-09-28T06:11:04.153Z,1009.91
2018-09-28T06:12:04.124Z,1009.97
2018-09-28T06:13:04.092Z,1009.98
2018-09-28T06:14:04.077Z,1010.01
2018-09-28T06:15:04.052Z,1010.05
2018-09-28T06:16:04.016Z,1010.11
2018-09-28T06:17:03.993Z,1010.11
2018-09-28T06:18:04.055Z,1010.13
2018-09-28T06:19:03.968Z,1010.14
2018-09-28T06:20:03.927Z,1010.11
2018-09-28T06:21:03.889Z,1010.16
2018-09-28T06:22:03.864Z,1010.20
2018-09-28T06:23:03.834Z,1010.19
2018-09-28T06:24:03.864Z,1010.21
2018-09-28T06:25:03.781Z,1010.21
2018-09-28T06:26:03.829Z,1010.18
2018-09-28T06:27:03.729Z,1010.20
2018-09-28T06:28:03.700Z,1010.17
2018-09-28T06:29:03.679Z,1010.17
2018-09-28T06:30:03.697Z,1010.19
2018-09-28T06:31:03.620Z,1010.17
2018-09-28T06:32:03.595Z,1010.24
2018-09-28T06:33:03.567Z,1010.26
2018-09-28T06:34:03.545Z,1010.30
2018-09-28T06:35:03.511Z,1010.34
2018-09-28T06:36:03.526Z,1010.33
2018-09-28T06:37:03.461Z,1010.33
2018-09-28T06:38:03.439Z,1010.28
2018-09-28T06:39:03.415Z,1010.32
2018-09-28T06:40:03.384Z,1010.30
2018-09-28T06:41:03.360Z,1010.32
2018-09-28T06:42:03.623Z,1010.39
2018-09-28T06:43:03.312Z,1010.45
2018-09-28T06:44:03.280Z,1010.42
2018-09-28T06:45:03.252Z,1010.39
2018-09-28T06:46:03.231Z,1010.39
2018-09-28T06:47:03.199Z,1010.39
2018-09-28T06:48:03.179Z,1010.41
2018-09-28T06:49:03.152Z,1010.40
2018-09-28T06:50:03.115Z,1010.39
2018-09-28T06:51:03.097Z,1010.37
2018-09-28T06:52:03.067Z,1010.37
2018-09-28T06:53:03.047Z,1010.38
2018-09-28T06:54:03.020Z,1010.39
2018-09-28T06:55:02.989Z,1010.37
2018-09-28T06:56:02.962Z,1010.41
2018-09-28T06:57:02.938Z,1010.40
2018-09-28T06:58:02.919Z,1010.48
2018-09-28T06:59:02.880Z,1010.54
2018-09-28T07:00:02.893Z,1010.55
2018-09-28T07:01:02.826Z,1010.57
2018-09-28T07:02:02.804Z,1010.58
2018-09-28T07:03:02.783Z,1010.63
2018-09-28T07:04:02.776Z,1010.62
2018-09-28T07:05:02.760Z,1010.65
2018-09-28T07:06:02.745Z,1010.71
2018-09-28T07:07:02.666Z,1010.71
2018-09-28T07:08:02.648Z,1010.74
2018-09-28T07:09:02.615Z,1010.77
2018-09-28T07:10:02.592Z,1010.70
2018-09-28T07:11:02.571Z,1010.78
2018-09-28T07:12:02.546Z,1010.76
2018-09-28T07:13:02.511Z,1010.74
2018-09-28T07:14:02.486Z,1010.76
2018-09-28T07:15:02.463Z,1010.76
2018-09-28T07:16:02.426Z,1010.72
2018-09-28T07:17:02.409Z,1010.75
2018-09-28T07:18:02.431Z,1010.73
2018-09-28T07:19:02.351Z,1010.72
2018-09-28T07:20:02.340Z,1010.69
2018-09-28T07:21:02.296Z,1010.70
2018-09-28T07:22:02.269Z,1010.74
2018-09-28T07:23:02.248Z,1010.76
2018-09-28T07:24:02.304Z,1010.80
2018-09-28T07:25:02.258Z,1010.84
2018-09-28T07:26:02.167Z,1010.89
2018-09-28T07:27:02.145Z,1010.92
2018-09-28T07:28:02.119Z,1010.92
2018-09-28T07:29:02.205Z,1010.92
2018-09-28T07:30:02.064Z,1010.92
2018-09-28T07:31:02.038Z,1010.98
2018-09-28T07:32:02.007Z,1011.00
2018-09-28T07:33:01.982Z,1011.02
2018-09-28T07:34:01.961Z,1011.00
2018-09-28T07:35:01.931Z,1011.01
2018-09-28T07:36:02.142Z,1010.99
2018-09-28T07:37:02.118Z,1011.04
2018-09-28T07:38:01.858Z,1011.03
2018-09-28T07:39:01.821Z,1011.07
2018-09-28T07:40:01.802Z,1011.06
2018-09-28T07:41:01.770Z,1011.13
2018-09-28T07:42:01.891Z,1011.15
2018-09-28T07:43:01.730Z,1011.17
2018-09-28T07:44:01.695Z,1011.25
2018-09-28T07:45:01.668Z,1011.22
2018-09-28T07:46:01.641Z,1011.25
2018-09-28T07:47:01.625Z,1011.28
2018-09-28T07:48:01.596Z,1011.26
2018-09-28T07:49:01.621Z,1011.29
2018-09-28T07:50:01.534Z,1011.27
2018-09-28T07:51:01.508Z,1011.33
2018-09-28T07:52:01.491Z,1011.27
2018-09-28T07:53:01.456Z,1011.27
2018-09-28T07:54:01.432Z,1011.31
2018-09-28T07:55:01.410Z,1011.29
2018-09-28T07:56:01.376Z,1011.33
2018-09-28T07:57:01.349Z,1011.33
2018-09-28T07:58:01.332Z,1011.30
2018-09-28T07:59:01.297Z,1011.33
2018-09-28T08:00:01.273Z,1011.37
2018-09-28T08:01:01.244Z,1011.41
2018-09-28T08:02:01.220Z,1011.38
2018-09-28T08:03:01.193Z,1011.39
2018-09-28T08:04:01.262Z,1011.42
2018-09-28T08:05:01.141Z,1011.43
2018-09-28T08:06:01.118Z,1011.50
2018-09-28T08:07:01.083Z,1011.50
2018-09-28T08:08:01.065Z,1011.54
2018-09-28T08:09:01.033Z,1011.49
2018-09-28T08:10:01.009Z,1011.51
2018-09-28T08:11:00.982Z,1011.53
2018-09-28T08:12:00.956Z,1011.51
2018-09-28T08:13:00.936Z,1011.54
2018-09-28T08:14:00.903Z,1011.54
2018-09-28T08:15:00.882Z,1011.53
2018-09-28T08:16:00.853Z,1011.59
2018-09-28T08:17:00.827Z,1011.58
2018-09-28T08:18:00.842Z,1011.56
2018-09-28T08:19:00.773Z,1011.58
2018-09-28T08:20:00.749Z,1011.61
2018-09-28T08:21:00.718Z,1011.62
2018-09-28T08:22:00.688Z,1011.57
2018-09-28T08:23:00.681Z,1011.60
2018-09-28T08:24:00.635Z,1011.62
2018-09-28T08:25:00.617Z,1011.64
2018-09-28T08:26:00.597Z,1011.70
2018-09-28T08:27:00.559Z,1011.68
2018-09-28T08:28:00.539Z,1011.70
2018-09-28T08:29:00.510Z,1011.73
2018-09-28T08:30:00.485Z,1011.77
2018-09-28T08:31:00.464Z,1011.85
2018-09-28T08:32:00.428Z,1011.80
2018-09-28T08:33:00.407Z,1011.86
2018-09-28T08:34:00.372Z,1011.88
2018-09-28T08:35:00.362Z,1011.78
2018-09-28T08:36:00.325Z,1011.80
2018-09-28T08:37:00.293Z,1011.77
2018-09-28T08:38:00.276Z,1011.77
2018-09-28T08:39:00.248Z,1011.85
2018-09-28T08:40:00.217Z,1011.77
2018-09-28T08:41:00.190Z,1011.80
2018-09-28T08:42:00.225Z,1011.83
2018-09-28T08:43:00.146Z,1011.87
2018-09-28T08:44:00.113Z,1011.91
2018-09-28T08:45:00.088Z,1011.89
2018-09-28T08:46:00.061Z,1011.87
2018-09-28T08:47:00.035Z,1011.88
2018-09-28T08:48:00.024Z,1011.92
2018-09-28T08:48:59.978Z,1011.94
2018-09-28T08:49:59.964Z,1011.95
2018-09-28T08:50:59.937Z,1011.99
2018-09-28T08:51:59.905Z,1012.05
2018-09-28T08:52:59.885Z,1012.05
2018-09-28T08:53:59.851Z,1012.05
2018-09-28T08:54:59.823Z,1012.05
2018-09-28T08:55:59.801Z,1012.11
2018-09-28T08:56:59.773Z,1012.14
2018-09-28T08:57:59.746Z,1012.13
2018-09-28T08:58:59.719Z,1012.17
2018-09-28T08:59:59.698Z,1012.15
2018-09-28T09:00:59.665Z,1012.13
2018-09-28T09:01:59.695Z,1012.16
2018-09-28T09:02:59.619Z,1012.13
2018-09-28T09:03:59.586Z,1012.19
2018-09-28T09:04:59.568Z,1012.21
2018-09-28T09:05:59.538Z,1012.17
2018-09-28T09:06:59.509Z,1012.23
2018-09-28T09:07:59.478Z,1012.22
2018-09-28T09:08:59.463Z,1012.24
2018-09-28T09:09:59.436Z,1012.21
2018-09-28T09:10:59.414Z,1012.23
2018-09-28T09:11:59.386Z,1012.26
2018-09-28T09:12:59.357Z,1012.31
2018-09-28T09:13:59.325Z,1012.26
2018-09-28T09:14:59.304Z,1012.26
2018-09-28T09:15:59.271Z,1012.24
2018-09-28T09:16:59.243Z,1012.30
2018-09-28T09:17:59.301Z,1012.30
2018-09-28T09:18:59.201Z,1012.31
2018-09-28T09:19:59.173Z,1012.33
2018-09-28T09:20:59.144Z,1012.31
2018-09-28T09:21:59.125Z,1012.34
2018-09-28T09:22:59.093Z,1012.36
2018-09-28T09:23:59.137Z,1012.37
2018-09-28T09:24:59.037Z,1012.41
2018-09-28T09:25:59.010Z,1012.42
2018-09-28T09:26:58.993Z,1012.42
2018-09-28T09:27:58.957Z,1012.36
2018-09-28T09:28:58.932Z,1012.45
2018-09-28T09:29:58.951Z,1012.45
2018-09-28T09:30:58.881Z,1012.42
2018-09-28T09:31:58.862Z,1012.44
2018-09-28T09:32:58.840Z,1012.47
2018-09-28T09:33:58.804Z,1012.49
2018-09-28T09:34:58.782Z,1012.47
2018-09-28T09:35:58.747Z,1012.53
2018-09-28T09:36:58.731Z,1012.52
2018-09-28T09:37:58.692Z,1012.56
2018-09-28T09:38:58.670Z,1012.51
2018-09-28T09:39:58.648Z,1012.50
2018-09-28T09:40:58.618Z,1012.51
2018-09-28T09:41:58.600Z,1012.54
2018-09-28T09:42:58.573Z,1012.55
2018-09-28T09:43:58.543Z,1012.57
2018-09-28T09:44:58.519Z,1012.56
2018-09-28T09:45:58.486Z,1012.64
2018-09-28T09:46:58.463Z,1012.58
2018-09-28T09:47:58.441Z,1012.65
2018-09-28T09:48:58.410Z,1012.62
2018-09-28T09:49:58.389Z,1012.59
2018-09-28T09:50:58.360Z,1012.64
2018-09-28T09:51:58.330Z,1012.62
2018-09-28T09:52:58.304Z,1012.64
2018-09-28T09:53:58.286Z,1012.67
2018-09-28T09:54:58.257Z,1012.70
2018-09-28T09:55:58.228Z,1012.66
2018-09-28T09:56:58.207Z,1012.67
2018-09-28T09:57:58.193Z,1012.66
2018-09-28T09:58:58.154Z,1012.69
2018-09-28T09:59:58.123Z,1012.68
2018-09-28T10:00:58.101Z,1012.77
2018-09-28T10:01:58.076Z,1012.75
2018-09-28T10:02:58.047Z,1012.73
2018-09-28T10:03:58.019Z,1012.83
2018-09-28T10:04:57.996Z,1012.83
2018-09-28T10:05:57.973Z,1012.86
2018-09-28T10:06:57.939Z,1012.87
2018-09-28T10:07:57.953Z,1012.81
2018-09-28T10:08:57.893Z,1012.87
2018-09-28T10:09:57.860Z,1012.85
2018-09-28T10:10:57.836Z,1012.90
2018-09-28T10:11:57.810Z,1012.88
2018-09-28T10:12:57.792Z,1012.97
2018-09-28T10:13:57.764Z,1012.92
2018-09-28T10:14:57.727Z,1012.97
2018-09-28T10:15:57.709Z,1012.98
2018-09-28T10:16:57.677Z,1013.02
2018-09-28T10:17:57.655Z,1012.99
2018-09-28T10:18:57.639Z,1013.01
2018-09-28T10:19:57.598Z,1013.03
2018-09-28T10:20:57.581Z,1013.10
2018-09-28T10:21:57.550Z,1013.11
2018-09-28T10:22:57.522Z,1013.11
2018-09-28T10:23:57.502Z,1013.10
2018-09-28T10:24:57.467Z,1013.13
2018-09-28T10:25:57.450Z,1013.18
2018-09-28T10:26:57.433Z,1013.21
2018-09-28T10:27:57.424Z,1013.22
2018-09-28T10:28:57.366Z,1013.24
2018-09-28T10:29:57.341Z,1013.25
2018-09-28T10:30:57.313Z,1013.24
2018-09-28T10:31:57.293Z,1013.25
2018-09-28T10:32:57.261Z,1013.23
2018-09-28T10:33:57.239Z,1013.28
2018-09-28T10:34:57.203Z,1013.32
2018-09-28T10:35:57.189Z,1013.29
2018-09-28T10:36:57.159Z,1013.29
2018-09-28T10:37:57.134Z,1013.31
2018-09-28T10:38:57.109Z,1013.29
2018-09-28T10:39:57.076Z,1013.38
2018-09-28T10:40:57.166Z,1013.37
2018-09-28T10:41:57.026Z,1013.37
2018-09-28T10:42:57.014Z,1013.32
2018-09-28T10:43:56.987Z,1013.34
2018-09-28T10:44:56.948Z,1013.32
2018-09-28T10:45:56.941Z,1013.37
2018-09-28T10:46:56.899Z,1013.37
2018-09-28T10:47:56.865Z,1013.41
2018-09-28T10:48:56.840Z,1013.41
2018-09-28T10:49:56.826Z,1013.41
2018-09-28T10:50:56.831Z,1013.38
2018-09-28T10:51:56.882Z,1013.43
2018-09-28T10:52:56.842Z,1013.42
2018-09-28T10:53:56.711Z,1013.41
2018-09-28T10:54:56.684Z,1013.42
2018-09-28T10:55:56.667Z,1013.43
2018-09-28T10:56:56.634Z,1013.43
2018-09-28T10:57:56.613Z,1013.48
2018-09-28T10:58:56.662Z,1013.48
2018-09-28T10:59:56.558Z,1013.54
2018-09-28T11:00:56.531Z,1013.50
2018-09-28T11:01:56.506Z,1013.48
2018-09-28T11:02:56.475Z,1013.47
2018-09-28T11:03:56.452Z,1013.46
2018-09-28T11:04:56.428Z,1013.45
2018-09-28T11:05:56.401Z,1013.45
2018-09-28T11:06:56.374Z,1013.46
2018-09-28T11:07:56.344Z,1013.44
2018-09-28T11:08:56.390Z,1013.51
2018-09-28T11:09:56.290Z,1013.50
2018-09-28T11:10:56.265Z,1013.51
2018-09-28T11:11:56.240Z,1013.46
2018-09-28T11:12:56.219Z,1013.50
2018-09-28T11:13:56.188Z,1013.52
2018-09-28T11:14:56.160Z,1013.51
2018-09-28T11:15:56.131Z,1013.51
2018-09-28T11:16:56.113Z,1013.45
2018-09-28T11:17:56.089Z,1013.48
2018-09-28T11:18:56.091Z,1013.47
2018-09-28T11:19:56.035Z,1013.51
2018-09-28T11:20:56.009Z,1013.50
2018-09-28T11:21:55.977Z,1013.58
2018-09-28T11:22:56.019Z,1013.54
2018-09-28T11:23:55.953Z,1013.57
2018-09-28T11:24:55.899Z,1013.52
2018-09-28T11:25:55.882Z,1013.50
2018-09-28T11:26:55.852Z,1013.44
2018-09-28T11:27:55.821Z,1013.48
2018-09-28T11:28:55.796Z,1013.48
2018-09-28T11:29:55.777Z,1013.49
2018-09-28T11:30:55.742Z,1013.46
2018-09-28T11:31:55.714Z,1013.50
2018-09-28T11:32:55.708Z,1013.45
2018-09-28T11:33:55.664Z,1013.42
2018-09-28T11:34:55.637Z,1013.37
2018-09-28T11:35:56.097Z,1013.40
2018-09-28T11:36:55.588Z,1013.36
2018-09-28T11:37:55.559Z,1013.38
2018-09-28T11:38:55.536Z,1013.34
2018-09-28T11:39:55.516Z,1013.33
2018-09-28T11:40:55.481Z,1013.30
2018-09-28T11:41:55.458Z,1013.29
2018-09-28T11:42:55.431Z,1013.22
2018-09-28T11:43:55.411Z,1013.26
2018-09-28T11:44:55.379Z,1013.26
2018-09-28T11:45:55.346Z,1013.28
2018-09-28T11:46:55.330Z,1013.31
2018-09-28T11:47:55.301Z,1013.28
2018-09-28T11:48:55.282Z,1013.32
2018-09-28T11:49:55.247Z,1013.34
2018-09-28T11:50:55.224Z,1013.32
2018-09-28T11:51:55.197Z,1013.37
2018-09-28T11:52:55.173Z,1013.35
2018-09-28T11:53:55.139Z,1013.34
2018-09-28T11:54:55.116Z,1013.34
2018-09-28T11:55:55.129Z,1013.29
2018-09-28T11:56:55.060Z,1013.30
2018-09-28T11:57:55.044Z,1013.30
2018-09-28T11:58:55.020Z,1013.24
2018-09-28T11:59:54.999Z,1013.29
2018-09-28T12:00:54.962Z,1013.24
2018-09-28T12:01:54.940Z,1013.22
2018-09-28T12:02:54.907Z,1013.21
2018-09-28T12:03:54.889Z,1013.13
2018-09-28T12:04:54.908Z,1013.17